Time;durP1;ratioP1;P1;durP2;ratioP2;P2;SDS_P1;SDS_P2;PMS_P1;PMS_P2;Temp;Humidity;BMP_temperature;BMP_pressure;BME280_temperature;BME280_humidity;BME280_pressure;Samples;Min_cycle;Max_cycle;Signal;HPM_P1;HPM_P2
2022/11/13 00:01:46;;;;;;;34.75;12.35;;;;;;;10.28;100.00;101782.88;5056296;28;20039;-62
2022/11/13 00:04:12;;;;;;;18.95;10.35;;;;;;;10.28;100.00;101785.53;5052255;28;20068;-63
2022/11/13 00:06:37;;;;;;;16.80;10.20;;;;;;;10.28;100.00;101779.41;5047581;28;20056;-63
2022/11/13 00:09:02;;;;;;;23.23;10.68;;;;;;;10.26;100.00;101780.34;5052673;28;20055;-61
2022/11/13 00:11:28;;;;;;;14.52;9.27;;;;;;;10.28;100.00;101784.69;5048629;28;20029;-62
2022/11/13 00:13:53;;;;;;;24.30;12.13;;;;;;;10.28;100.00;101784.69;5057388;28;20017;-63
2022/11/13 00:16:20;;;;;;;26.33;11.70;;;;;;;10.30;100.00;101782.69;5056552;28;20049;-59
2022/11/13 00:18:46;;;;;;;25.25;9.73;;;;;;;10.29;100.00;101778.41;5058565;28;20037;-61
2022/11/13 00:21:23;;;;;;;26.75;11.65;;;;;;;10.32;100.00;101778.06;5057401;28;20035;-61
2022/11/13 00:23:49;;;;;;;19.27;9.38;;;;;;;10.29;100.00;101776.56;5041581;28;20078;-59
2022/11/13 00:26:22;;;;;;;21.83;10.55;;;;;;;10.33;100.00;101787.72;5062169;28;20421;-60
2022/11/13 00:28:55;;;;;;;20.85;10.15;;;;;;;10.33;100.00;101788.53;5055528;28;20055;-57
2022/11/13 00:31:21;;;;;;;26.65;11.88;;;;;;;10.32;100.00;101780.72;5059956;28;20025;-62
2022/11/13 00:33:47;;;;;;;22.15;10.52;;;;;;;10.33;100.00;101785.06;5057255;28;21162;-59
2022/11/13 00:36:18;;;;;;;16.17;8.52;;;;;;;10.35;100.00;101791.00;5055062;28;20028;-60
2022/11/13 00:38:43;;;;;;;17.05;9.52;;;;;;;10.34;100.00;101786.72;5059877;28;20017;-58
2022/11/13 00:41:09;;;;;;;15.05;7.88;;;;;;;10.35;100.00;101777.75;5052463;28;20525;-61
2022/11/13 00:43:34;;;;;;;19.20;10.55;;;;;;;10.36;100.00;101776.78;5054033;28;20037;-61
2022/11/13 00:46:00;;;;;;;18.50;9.82;;;;;;;10.36;100.00;101777.59;5061389;28;20029;-63
2022/11/13 00:48:25;;;;;;;35.67;11.27;;;;;;;10.40;100.00;101776.31;5052271;28;20027;-63
2022/11/13 00:50:51;;;;;;;28.02;11.70;;;;;;;10.41;100.00;101775.31;5056848;28;20199;-61
2022/11/13 00:53:16;;;;;;;20.20;10.02;;;;;;;10.42;100.00;101776.13;5053104;28;20090;-62
2022/11/13 00:55:43;;;;;;;24.08;10.60;;;;;;;10.43;100.00;101776.00;5050478;28;20421;-62
2022/11/13 00:58:09;;;;;;;22.88;9.63;;;;;;;10.43;100.00;101776.00;5058330;28;20086;-62
2022/11/13 01:00:34;;;;;;;16.83;9.32;;;;;;;10.45;100.00;101775.81;5052268;28;20057;-62
2022/11/13 01:03:00;;;;;;;18.02;9.73;;;;;;;10.46;100.00;101774.84;5057242;28;20234;-63
2022/11/13 01:05:26;;;;;;;29.20;10.70;;;;;;;10.47;100.00;101766.72;5054517;28;20452;-63
2022/11/13 01:07:52;;;;;;;15.15;9.48;;;;;;;10.47;100.00;101758.75;5036831;28;20529;-62
2022/11/13 01:10:17;;;;;;;13.55;8.10;;;;;;;10.49;100.00;101761.25;5058882;28;20036;-58
2022/11/13 01:12:42;;;;;;;18.55;9.13;;;;;;;10.50;100.00;101762.09;5051286;28;20100;-63
2022/11/13 01:15:08;;;;;;;17.63;8.68;;;;;;;10.52;100.00;101763.59;5062459;28;20048;-63
2022/11/13 01:17:34;;;;;;;16.95;9.90;;;;;;;10.54;100.00;101769.56;5056033;28;20104;-62
2022/11/13 01:19:59;;;;;;;20.58;10.40;;;;;;;10.56;100.00;101761.44;5060462;28;20447;-63
2022/11/13 01:22:24;;;;;;;21.60;9.18;;;;;;;10.55;100.00;101757.97;5053934;28;20057;-63
2022/11/13 01:24:50;;;;;;;20.95;9.48;;;;;;;10.61;100.00;101764.44;5057639;28;20036;-62
2022/11/13 01:27:16;;;;;;;24.75;10.93;;;;;;;10.62;100.00;101761.66;5053247;28;20036;-64
2022/11/13 01:29:41;;;;;;;19.88;8.95;;;;;;;10.61;100.00;101767.09;5051440;28;20061;-63
2022/11/13 01:32:07;;;;;;;10.85;7.32;;;;;;;10.62;100.00;101766.94;5047775;28;20075;-60
2022/11/13 01:34:32;;;;;;;13.60;8.95;;;;;;;10.63;100.00;101763.28;5057375;28;20029;-60
2022/11/13 01:36:58;;;;;;;20.13;9.30;;;;;;;10.64;100.00;101757.00;5054863;28;20047;-61
2022/11/13 01:39:23;;;;;;;17.15;9.32;;;;;;;10.66;100.00;101760.34;5060255;28;20032;-61
2022/11/13 01:41:49;;;;;;;17.33;8.27;;;;;;;10.67;100.00;101754.03;5035258;28;20037;-59
2022/11/13 01:44:17;;;;;;;15.68;7.90;;;;;;;10.68;100.00;101768.13;5059571;28;20024;-61
2022/11/13 01:46:54;;;;;;;18.73;10.55;;;;;;;10.68;100.00;101762.81;5054885;28;20059;-60
2022/11/13 01:49:25;;;;;;;17.10;9.52;;;;;;;10.68;100.00;101762.81;5051587;28;20020;-60
2022/11/13 01:52:02;;;;;;;32.97;9.55;;;;;;;10.73;100.00;101757.03;5057673;28;20025;-60
2022/11/13 01:54:33;;;;;;;19.10;9.45;;;;;;;10.73;100.00;101751.72;5053071;28;20047;-60
2022/11/13 01:57:00;;;;;;;17.40;10.13;;;;;;;10.72;100.00;101748.25;5054747;28;20415;-60
2022/11/13 01:59:31;;;;;;;21.48;9.60;;;;;;;10.75;100.00;101747.09;5052324;28;20376;-61
2022/11/13 02:01:57;;;;;;;17.80;9.52;;;;;;;10.74;100.00;101748.06;5052633;28;20370;-61
2022/11/13 02:04:23;;;;;;;18.33;9.93;;;;;;;10.75;100.00;101744.44;5054430;28;20032;-61
2022/11/13 02:06:55;;;;;;;20.23;9.18;;;;;;;10.79;100.00;101756.38;5045776;28;20028;-60
2022/11/13 02:09:27;;;;;;;18.48;8.57;;;;;;;10.78;100.00;101750.25;5046137;28;20033;-58
2022/11/13 02:11:53;;;;;;;15.82;8.57;;;;;;;10.77;100.00;101745.13;5043743;28;20048;-61
2022/11/13 02:14:21;;;;;;;17.55;8.35;;;;;;;10.79;100.00;101743.13;5045872;28;20470;-61
2022/11/13 02:16:49;;;;;;;13.98;7.95;;;;;;;10.78;100.00;101744.13;5056053;28;20038;-60
2022/11/13 02:19:27;;;;;;;13.57;8.45;;;;;;;10.79;100.00;101745.78;5054922;28;20069;-61
2022/11/13 02:22:04;;;;;;;21.38;9.15;;;;;;;10.81;100.00;101743.78;5050059;28;20046;-61
2022/11/13 02:24:39;;;;;;;17.95;10.02;;;;;;;10.83;100.00;101752.44;5038328;28;20555;-61
2022/11/13 02:27:09;;;;;;;21.17;9.95;;;;;;;10.83;100.00;101753.25;5046309;28;20170;-61
2022/11/13 02:29:35;;;;;;;15.48;7.63;;;;;;;10.83;100.00;101741.81;5053268;28;20045;-61
2022/11/13 02:32:00;;;;;;;20.80;9.30;;;;;;;10.85;100.00;101742.50;5058109;28;20534;-59
2022/11/13 02:34:26;;;;;;;17.48;9.80;;;;;;;10.85;100.00;101729.22;5056803;28;20036;-60
2022/11/13 02:36:51;;;;;;;15.52;9.35;;;;;;;10.85;100.00;101731.88;5054847;28;20323;-61
2022/11/13 02:39:17;;;;;;;16.08;8.98;;;;;;;10.85;100.00;101723.91;5033429;28;20095;-61
2022/11/13 02:41:42;;;;;;;11.38;7.50;;;;;;;10.86;100.00;101728.22;5057458;28;20020;-62
2022/11/13 02:44:07;;;;;;;15.77;9.23;;;;;;;10.87;100.00;101729.91;5055707;28;20493;-61
2022/11/13 02:46:33;;;;;;;15.20;9.75;;;;;;;10.90;100.00;101732.22;5062893;28;20116;-61
2022/11/13 02:48:59;;;;;;;15.35;7.75;;;;;;;10.89;100.00;101733.19;5059918;28;20032;-61
2022/11/13 02:51:24;;;;;;;16.15;8.65;;;;;;;10.89;100.00;101727.88;5061279;28;20025;-62
2022/11/13 02:53:50;;;;;;;17.55;9.05;;;;;;;10.90;100.00;101732.22;5058230;28;20056;-62
2022/11/13 02:56:15;;;;;;;15.90;8.98;;;;;;;10.93;100.00;101733.72;5051737;28;20032;-60
2022/11/13 02:58:41;;;;;;;17.23;9.93;;;;;;;10.92;100.00;101735.56;5062728;28;20024;-60
2022/11/13 03:01:07;;;;;;;13.27;7.78;;;;;;;10.92;100.00;101730.25;5056128;28;20096;-61
2022/11/13 03:03:32;;;;;;;13.30;8.45;;;;;;;10.92;100.00;101724.94;5038515;28;20402;-60
2022/11/13 03:05:58;;;;;;;24.70;10.88;;;;;;;10.93;100.00;101723.94;5032711;28;20028;-61
2022/11/13 03:08:24;;;;;;;18.17;9.40;;;;;;;10.91;100.00;101724.09;5031811;28;20053;-60
2022/11/13 03:10:51;;;;;;;16.08;9.43;;;;;;;10.93;100.00;101729.25;5058399;28;20597;-60
2022/11/13 03:13:16;;;;;;;14.70;8.90;;;;;;;10.93;100.00;101720.44;5049859;28;20027;-60
2022/11/13 03:15:41;;;;;;;16.17;9.05;;;;;;;10.92;100.00;101719.63;5057329;28;20483;-60
2022/11/13 03:18:07;;;;;;;13.73;9.10;;;;;;;10.94;100.00;101722.09;5054031;28;20516;-61
2022/11/13 03:20:36;;;;;;;23.92;9.95;;;;;;;10.95;100.00;101715.81;5065914;28;20025;-61
2022/11/13 03:23:02;;;;;;;14.70;8.45;;;;;;;10.93;100.00;101715.16;5059581;28;20413;-60
2022/11/13 03:25:28;;;;;;;15.95;8.60;;;;;;;10.93;100.00;101712.50;5063923;28;20035;-60
2022/11/13 03:27:53;;;;;;;19.50;9.27;;;;;;;10.94;100.00;101717.63;5063571;28;20024;-61
2022/11/13 03:30:19;;;;;;;12.57;7.32;;;;;;;10.96;100.00;101722.78;5068419;28;20500;-60
2022/11/13 03:32:44;;;;;;;16.52;9.45;;;;;;;10.94;100.00;101712.31;5067408;28;20024;-60
2022/11/13 03:35:09;;;;;;;14.88;8.68;;;;;;;10.94;100.00;101712.31;5064310;28;20477;-61
2022/11/13 03:37:35;;;;;;;13.27;8.77;;;;;;;10.94;100.00;101714.13;5057638;28;20034;-61
2022/11/13 03:40:00;;;;;;;16.15;8.35;;;;;;;10.92;100.00;101698.41;5059206;28;20450;-62
2022/11/13 03:42:26;;;;;;;10.98;7.55;;;;;;;10.92;100.00;101703.72;5060222;28;20025;-61
2022/11/13 03:44:51;;;;;;;15.57;8.40;;;;;;;10.93;100.00;101702.69;5066131;28;20043;-61
2022/11/13 03:47:16;;;;;;;17.23;7.32;;;;;;;10.93;100.00;101699.22;5061299;28;20046;-61
2022/11/13 03:49:42;;;;;;;15.93;8.60;;;;;;;10.95;100.00;101707.84;5057677;28;20124;-60
2022/11/13 03:52:07;;;;;;;14.38;7.88;;;;;;;10.94;100.00;101707.00;5070616;28;20027;-61
2022/11/13 03:54:32;;;;;;;16.20;8.85;;;;;;;10.95;100.00;101708.69;5058126;28;20482;-60
2022/11/13 03:56:58;;;;;;;13.77;7.82;;;;;;;10.95;100.00;101711.34;5050753;28;20250;-60
2022/11/13 03:59:23;;;;;;;17.60;7.82;;;;;;;10.94;100.00;101701.69;5058553;28;20044;-61
2022/11/13 04:01:49;;;;;;;12.75;6.88;;;;;;;10.96;100.00;101704.19;5061642;28;20487;-61
2022/11/13 04:04:14;;;;;;;14.70;7.57;;;;;;;10.96;100.00;101704.19;5066917;28;20424;-61
2022/11/13 04:06:40;;;;;;;13.82;9.75;;;;;;;10.96;100.00;101704.19;5044248;28;20020;-61
2022/11/13 04:09:06;;;;;;;16.52;9.95;;;;;;;10.97;100.00;101698.75;5064640;28;20032;-60
2022/11/13 04:11:32;;;;;;;11.73;7.03;;;;;;;10.96;100.00;101694.41;5061158;28;20023;-60
2022/11/13 04:13:57;;;;;;;17.02;9.90;;;;;;;10.96;100.00;101697.06;5062178;28;20549;-62
2022/11/13 04:16:23;;;;;;;17.13;10.00;;;;;;;10.99;100.00;101701.22;5064288;28;20025;-61
2022/11/13 04:18:48;;;;;;;13.93;9.15;;;;;;;10.98;100.00;101702.22;5064506;28;20120;-60
2022/11/13 04:21:13;;;;;;;16.88;9.77;;;;;;;10.98;100.00;101697.72;5058398;28;20063;-61
2022/11/13 04:23:39;;;;;;;21.15;9.70;;;;;;;10.99;100.00;101699.38;5056520;28;20040;-60
2022/11/13 04:26:04;;;;;;;21.80;10.75;;;;;;;11.00;100.00;101698.41;5062671;28;20036;-61
2022/11/13 04:28:30;;;;;;;19.90;11.80;;;;;;;10.99;100.00;101698.56;5043975;28;20052;-62
2022/11/13 04:30:55;;;;;;;18.50;9.95;;;;;;;10.99;100.00;101699.38;5057283;28;20463;-62
2022/11/13 04:33:21;;;;;;;16.67;9.07;;;;;;;10.99;100.00;101693.25;5061686;28;20040;-60
2022/11/13 04:35:47;;;;;;;16.05;9.25;;;;;;;11.00;100.00;101684.31;5064426;28;20032;-59
2022/11/13 04:38:13;;;;;;;18.05;9.77;;;;;;;11.00;100.00;101687.78;5059272;28;20036;-60
2022/11/13 04:40:39;;;;;;;22.27;10.98;;;;;;;11.01;100.00;101684.13;5068368;28;20037;-62
2022/11/13 04:43:04;;;;;;;14.60;9.27;;;;;;;10.99;100.00;101683.47;5061737;28;20021;-60
2022/11/13 04:45:30;;;;;;;16.95;9.95;;;;;;;10.99;100.00;101683.47;5063213;28;20032;-61
2022/11/13 04:47:55;;;;;;;15.68;8.77;;;;;;;10.99;100.00;101687.94;5062191;28;20072;-61
2022/11/13 04:50:21;;;;;;;16.42;9.77;;;;;;;10.99;100.00;101680.81;5059970;28;20371;-60
2022/11/13 04:52:47;;;;;;;16.00;9.38;;;;;;;10.99;100.00;101683.47;5063647;28;20489;-61
2022/11/13 04:55:13;;;;;;;15.48;9.55;;;;;;;11.00;100.00;101671.03;5067001;28;20032;-61
2022/11/13 04:57:38;;;;;;;15.48;9.00;;;;;;;10.99;100.00;101666.72;5059101;28;20067;-61
2022/11/13 05:00:06;;;;;;;16.00;10.02;;;;;;;11.01;100.00;101668.22;5056390;28;20449;-62
2022/11/13 05:02:33;;;;;;;16.00;7.65;;;;;;;11.01;100.00;101662.06;5064601;28;20071;-56
2022/11/13 05:04:58;;;;;;;17.33;10.23;;;;;;;11.01;100.00;101659.44;5053616;28;20032;-60
2022/11/13 05:07:25;;;;;;;22.70;9.77;;;;;;;11.01;100.00;101652.28;5057474;28;20569;-61
2022/11/13 05:09:51;;;;;;;16.33;9.30;;;;;;;11.00;100.00;101645.34;5063738;28;20394;-61
2022/11/13 05:12:16;;;;;;;15.13;9.35;;;;;;;10.99;100.00;101635.69;5066116;28;20028;-59
2022/11/13 05:14:41;;;;;;;12.93;8.38;;;;;;;10.99;100.00;101630.38;5063784;28;20024;-61
2022/11/13 05:17:09;;;;;;;18.52;8.95;;;;;;;11.01;100.00;101631.06;5065668;28;20100;-60
2022/11/13 05:19:35;;;;;;;20.05;9.45;;;;;;;10.98;100.00;101623.44;5057386;28;20059;-62
2022/11/13 05:22:00;;;;;;;14.95;9.23;;;;;;;10.98;100.00;101628.75;5059285;28;20056;-62
2022/11/13 05:24:26;;;;;;;18.60;9.27;;;;;;;10.99;100.00;101625.06;5060742;28;20032;-60
2022/11/13 05:26:51;;;;;;;16.63;9.48;;;;;;;10.99;100.00;101625.06;5062373;28;20388;-60
2022/11/13 05:29:17;;;;;;;15.68;9.48;;;;;;;10.98;100.00;101619.94;5060010;28;20052;-59
2022/11/13 05:31:43;;;;;;;15.05;8.52;;;;;;;10.96;100.00;101622.75;5063550;28;20036;-61
2022/11/13 05:34:08;;;;;;;12.38;7.30;;;;;;;10.95;100.00;101620.28;5063214;28;20118;-61
2022/11/13 05:36:34;;;;;;;13.38;7.75;;;;;;;10.95;100.00;101618.47;5066289;28;20087;-61
2022/11/13 05:38:59;;;;;;;16.67;8.40;;;;;;;10.95;100.00;101618.47;5063970;28;20552;-60
2022/11/13 05:41:25;;;;;;;14.20;7.82;;;;;;;10.94;100.00;101606.16;5059021;28;20055;-62
2022/11/13 05:43:51;;;;;;;16.95;8.98;;;;;;;10.95;100.00;101605.19;5055284;28;20025;-61
2022/11/13 05:46:18;;;;;;;15.52;8.98;;;;;;;10.95;100.00;101607.84;5066333;28;20021;-61
2022/11/13 05:48:45;;;;;;;22.13;8.75;;;;;;;10.95;100.00;101607.03;5053874;28;20060;-62
2022/11/13 05:51:16;;;;;;;14.98;7.50;;;;;;;10.96;100.00;101601.53;5058941;28;20395;-60
2022/11/13 05:53:42;;;;;;;17.85;9.48;;;;;;;10.95;100.00;101601.72;5057743;28;20033;-61
2022/11/13 05:56:20;;;;;;;17.70;9.10;;;;;;;10.96;100.00;101598.88;5067269;28;20119;-60
2022/11/13 05:58:46;;;;;;;19.83;8.43;;;;;;;10.93;100.00;101599.22;5056293;28;20032;-62
2022/11/13 06:01:17;;;;;;;16.52;10.50;;;;;;;10.94;100.00;101595.56;5059903;28;20666;-62
2022/11/13 06:03:44;;;;;;;13.68;9.25;;;;;;;10.91;100.00;101595.88;5072700;28;20033;-60
2022/11/13 06:06:12;;;;;;;13.35;8.40;;;;;;;10.90;100.00;101595.06;5066764;28;20072;-61
2022/11/13 06:08:38;;;;;;;15.27;8.70;;;;;;;10.89;100.00;101581.94;5057695;28;20032;-60
2022/11/13 06:11:06;;;;;;;14.93;9.82;;;;;;;10.90;100.00;101580.97;5060293;28;20017;-61
2022/11/13 06:13:32;;;;;;;16.08;10.65;;;;;;;10.88;100.00;101582.97;5061713;28;20102;-60
2022/11/13 06:16:02;;;;;;;18.38;11.30;;;;;;;10.89;100.00;101576.66;5062103;28;20024;-59
2022/11/13 06:18:28;;;;;;;14.65;8.35;;;;;;;10.85;100.00;101573.50;5055725;28;20029;-61
2022/11/13 06:20:53;;;;;;;17.27;9.73;;;;;;;10.87;100.00;101573.34;5052844;28;20023;-61
2022/11/13 06:23:19;;;;;;;17.50;7.82;;;;;;;10.87;100.00;101570.69;5060218;28;20372;-60
2022/11/13 06:25:45;;;;;;;19.65;10.48;;;;;;;10.85;100.00;101568.19;5054514;28;20549;-62
2022/11/13 06:28:10;;;;;;;14.77;7.45;;;;;;;10.84;100.00;101568.34;5055677;28;20040;-61
2022/11/13 06:30:35;;;;;;;16.35;9.13;;;;;;;10.83;100.00;101574.66;5061390;28;20045;-60
2022/11/13 06:33:01;;;;;;;14.52;9.00;;;;;;;10.80;100.00;101575.84;5063354;28;20043;-61
2022/11/13 06:35:26;;;;;;;13.13;9.43;;;;;;;10.81;100.00;101574.00;5056199;28;20037;-58
2022/11/13 06:37:54;;;;;;;13.95;9.15;;;;;;;10.82;100.00;101575.69;5056758;28;20029;-61
2022/11/13 06:40:19;;;;;;;16.80;9.52;;;;;;;10.82;100.00;101573.03;5053677;28;20119;-61
2022/11/13 06:42:45;;;;;;;11.68;7.90;;;;;;;10.81;100.00;101571.34;5069396;28;20116;-62
2022/11/13 06:45:10;;;;;;;14.52;9.23;;;;;;;10.79;100.00;101571.53;5052373;28;20036;-61
2022/11/13 06:47:35;;;;;;;14.55;8.45;;;;;;;10.78;100.00;101574.34;5061907;28;20029;-60
2022/11/13 06:50:01;;;;;;;12.88;7.47;;;;;;;10.77;100.00;101576.16;5055888;28;20029;-60
2022/11/13 06:52:26;;;;;;;13.15;8.27;;;;;;;10.76;100.00;101566.53;5056960;28;20020;-60
2022/11/13 06:54:52;;;;;;;14.85;8.80;;;;;;;10.77;100.00;101575.34;5062994;28;20040;-61
2022/11/13 06:57:17;;;;;;;16.33;9.13;;;;;;;10.74;100.00;101573.00;5055488;28;20707;-61
2022/11/13 06:59:42;;;;;;;16.95;9.05;;;;;;;10.73;100.00;101577.47;5053725;28;20054;-59
2022/11/13 07:02:10;;;;;;;14.10;9.00;;;;;;;10.77;100.00;101583.31;5058783;28;20107;-60
2022/11/13 07:04:36;;;;;;;18.15;9.85;;;;;;;10.75;100.00;101579.97;5053453;28;20066;-61
2022/11/13 07:07:02;;;;;;;14.23;8.52;;;;;;;10.74;100.00;101579.16;5053972;28;20043;-59
2022/11/13 07:09:27;;;;;;;16.27;9.23;;;;;;;10.73;100.00;101576.66;5061829;28;20029;-61
2022/11/13 07:11:53;;;;;;;15.25;8.43;;;;;;;10.70;100.00;101573.34;5045216;28;20524;-61
2022/11/13 07:14:18;;;;;;;16.80;7.47;;;;;;;10.68;100.00;101575.31;5060109;28;20382;-61
2022/11/13 07:16:43;;;;;;;15.05;8.48;;;;;;;10.68;100.00;101579.78;5060597;28;20465;-61
2022/11/13 07:19:09;;;;;;;11.38;6.68;;;;;;;10.67;100.00;101578.97;5054573;28;20037;-61
2022/11/13 07:21:34;;;;;;;9.85;7.13;;;;;;;10.67;100.00;101567.53;5063766;28;20059;-61
2022/11/13 07:23:59;;;;;;;13.80;7.40;;;;;;;10.66;100.00;101572.03;5061854;28;20106;-62
2022/11/13 07:26:25;;;;;;;13.93;7.47;;;;;;;10.64;100.00;101579.31;5071601;28;20025;-60
2022/11/13 07:28:50;;;;;;;10.50;6.55;;;;;;;10.61;100.00;101579.66;5065193;28;20467;-61
2022/11/13 07:31:16;;;;;;;9.77;6.55;;;;;;;10.61;100.00;101582.28;5062896;28;20031;-61
2022/11/13 07:33:42;;;;;;;12.10;7.53;;;;;;;10.58;100.00;101579.13;5071200;28;20033;-61
2022/11/13 07:36:08;;;;;;;12.32;8.00;;;;;;;10.59;100.00;101580.81;5056205;28;20056;-61
2022/11/13 07:38:34;;;;;;;11.38;6.53;;;;;;;10.60;100.00;101577.97;5064945;28;20451;-60
2022/11/13 07:41:00;;;;;;;10.82;7.13;;;;;;;10.61;100.00;101579.66;5057006;28;20033;-62
2022/11/13 07:43:26;;;;;;;10.88;7.47;;;;;;;10.63;100.00;101579.47;5070675;28;20393;-61
2022/11/13 07:45:53;;;;;;;12.85;8.57;;;;;;;10.63;100.00;101587.41;5058846;28;20091;-62
2022/11/13 07:48:23;;;;;;;13.57;7.07;;;;;;;10.64;100.00;101581.97;5062591;28;20021;-60
2022/11/13 07:50:49;;;;;;;11.18;7.65;;;;;;;10.62;100.00;101589.25;5060500;28;20025;-60
2022/11/13 07:53:14;;;;;;;12.95;8.38;;;;;;;10.66;100.00;101587.09;5058099;28;20381;-61
2022/11/13 07:55:40;;;;;;;10.85;5.93;;;;;;;10.68;100.00;101587.75;5067193;28;20029;-61
2022/11/13 07:58:05;;;;;;;8.80;5.45;;;;;;;10.68;100.00;101585.94;5063224;28;20477;-61
2022/11/13 08:00:33;;;;;;;17.25;7.47;;;;;;;10.70;100.00;101586.59;5063431;28;20082;-60
2022/11/13 08:03:07;;;;;;;11.73;6.20;;;;;;;10.74;100.00;101589.78;5060600;28;20107;-60
2022/11/13 08:05:33;;;;;;;14.98;9.25;;;;;;;10.74;100.00;101586.25;5060336;28;20128;-61
2022/11/13 08:07:58;;;;;;;14.40;8.52;;;;;;;10.75;100.00;101587.94;5057206;28;20621;-60
2022/11/13 08:10:23;;;;;;;14.90;7.93;;;;;;;10.74;100.00;101583.59;5060446;28;20032;-61
2022/11/13 08:12:57;;;;;;;13.13;8.52;;;;;;;10.74;100.00;101583.59;5063673;28;20020;-61
2022/11/13 08:15:22;;;;;;;11.02;6.93;;;;;;;10.70;100.00;101583.94;5066085;28;20095;-61
2022/11/13 08:17:55;;;;;;;15.02;7.50;;;;;;;10.74;100.00;101588.91;5058641;28;20468;-58
2022/11/13 08:20:21;;;;;;;13.88;8.82;;;;;;;10.74;100.00;101583.59;5058784;28;20029;-60
2022/11/13 08:22:46;;;;;;;13.02;8.43;;;;;;;10.79;100.00;101582.16;5054262;28;20542;-60
2022/11/13 08:25:12;;;;;;;13.82;8.15;;;;;;;10.85;100.00;101576.16;5041804;28;20032;-60
2022/11/13 08:27:37;;;;;;;17.95;8.20;;;;;;;10.88;100.00;101578.47;5050347;28;20041;-61
2022/11/13 08:30:03;;;;;;;12.90;8.65;;;;;;;10.90;100.00;101579.16;5056630;28;20086;-61
2022/11/13 08:32:28;;;;;;;14.73;9.93;;;;;;;10.95;100.00;101581.31;5054332;28;20112;-61
2022/11/13 08:34:54;;;;;;;14.85;9.00;;;;;;;10.92;100.00;101576.34;5046668;28;20032;-60
2022/11/13 08:37:19;;;;;;;13.20;7.22;;;;;;;10.91;100.00;101566.69;5034312;28;20098;-59
2022/11/13 08:39:44;;;;;;;16.50;7.10;;;;;;;10.94;100.00;101568.19;5021879;28;20198;-61
2022/11/13 08:42:10;;;;;;;16.35;6.93;;;;;;;10.98;100.00;101569.53;5057791;28;20116;-60
2022/11/13 08:44:35;;;;;;;14.43;9.23;;;;;;;10.99;100.00;101572.00;5045317;28;20029;-60
2022/11/13 08:47:00;;;;;;;12.13;8.15;;;;;;;11.01;100.00;101566.53;5051395;28;20069;-60
2022/11/13 08:49:26;;;;;;;18.33;8.55;;;;;;;10.96;100.00;101569.69;5049383;28;20363;-61
2022/11/13 08:51:51;;;;;;;14.90;8.50;;;;;;;10.96;100.00;101569.69;5059025;28;20115;-60
2022/11/13 08:54:16;;;;;;;13.52;7.85;;;;;;;10.93;100.00;101561.25;5071760;28;20060;-60
2022/11/13 08:56:42;;;;;;;14.32;8.23;;;;;;;10.90;100.00;101565.06;5060934;28;20033;-60
2022/11/13 08:59:09;;;;;;;11.02;6.85;;;;;;;10.93;100.00;101572.69;5039607;28;20031;-61
2022/11/13 09:01:34;;;;;;;11.23;7.60;;;;;;;10.90;100.00;101563.22;5063010;28;20044;-61
2022/11/13 09:04:00;;;;;;;12.43;7.75;;;;;;;10.99;100.00;101566.69;5060072;28;20382;-59
2022/11/13 09:06:25;;;;;;;15.60;6.85;;;;;;;11.02;100.00;101571.69;5040611;28;20478;-60
2022/11/13 09:08:50;;;;;;;12.02;7.72;;;;;;;11.04;100.00;101568.84;5050601;28;20061;-58
2022/11/13 09:11:16;;;;;;;12.63;7.38;;;;;;;11.08;100.00;101571.00;5053430;28;20055;-61
2022/11/13 09:13:41;;;;;;;12.80;6.53;;;;;;;11.08;100.00;101565.69;5059538;28;20121;-60
2022/11/13 09:16:07;;;;;;;12.05;6.78;;;;;;;11.02;100.00;101558.41;5052868;28;20394;-64
2022/11/13 09:18:32;;;;;;;11.48;8.10;;;;;;;11.02;100.00;101563.72;5057036;28;20107;-60
2022/11/13 09:21:02;;;;;;;11.90;7.25;;;;;;;11.02;100.00;101558.41;5036488;28;20037;-60
2022/11/13 09:23:28;;;;;;;10.35;6.72;;;;;;;11.00;100.00;101565.72;5055642;28;20044;-61
2022/11/13 09:25:54;;;;;;;11.73;6.70;;;;;;;10.98;100.00;101570.34;5057193;28;20028;-61
2022/11/13 09:28:19;;;;;;;10.23;6.80;;;;;;;10.99;100.00;101566.69;5059009;28;20072;-61
2022/11/13 09:30:45;;;;;;;9.48;6.07;;;;;;;10.97;100.00;101566.06;5062230;28;20089;-61
2022/11/13 09:33:14;;;;;;;8.57;5.72;;;;;;;11.01;100.00;101572.66;5053684;28;20275;-58
2022/11/13 09:35:40;;;;;;;13.32;7.07;;;;;;;11.02;100.00;101578.78;5058628;28;20060;-60
2022/11/13 09:38:11;;;;;;;9.70;6.57;;;;;;;11.08;100.00;101575.50;5063622;28;20495;-59
2022/11/13 09:41:02;;;;;;;12.38;7.30;;;;;;;11.08;100.00;101556.91;5072579;28;20036;-61
2022/11/13 09:43:32;;;;;;;10.82;5.65;;;;;;;11.13;100.00;101550.09;5068510;28;20029;-61
2022/11/13 09:46:07;;;;;;;13.05;7.10;;;;;;;11.20;100.00;101554.72;5054342;28;20033;-60
2022/11/13 09:48:39;;;;;;;9.95;6.65;;;;;;;11.26;100.00;101554.06;5054072;28;20042;-61
2022/11/13 09:51:14;;;;;;;14.27;7.82;;;;;;;11.29;100.00;101548.41;5057070;28;20095;-61
2022/11/13 09:53:40;;;;;;;13.20;7.40;;;;;;;11.25;100.00;101549.75;5059096;28;20035;-61
2022/11/13 09:56:26;;;;;;;12.90;6.78;;;;;;;11.34;100.00;101543.44;5063571;28;20024;-61
2022/11/13 09:59:00;;;;;;;12.07;7.75;;;;;;;11.35;100.00;101534.44;5055158;28;20541;-61
2022/11/13 10:02:13;;;;;;;14.75;8.38;;;;;;;11.38;100.00;101534.09;5057954;28;20050;-60
2022/11/13 10:05:11;;;;;;;14.40;7.28;;;;;;;11.39;100.00;101525.16;5054079;28;20032;-60
2022/11/13 10:07:51;;;;;;;14.00;6.80;;;;;;;11.43;100.00;101531.75;5055891;28;20037;-60
2022/11/13 10:10:54;;;;;;;10.52;6.60;;;;;;;11.57;100.00;101522.28;5057593;28;20527;-61
2022/11/13 10:13:27;;;;;;;10.30;6.68;;;;;;;11.57;100.00;101519.63;5053655;28;20041;-59
2022/11/13 10:16:03;;;;;;;13.43;8.48;;;;;;;11.63;100.00;101510.13;5054052;28;20033;-61
2022/11/13 10:18:34;;;;;;;12.20;6.88;;;;;;;11.72;100.00;101509.94;5063630;28;20359;-58
2022/11/13 10:21:24;;;;;;;14.52;7.88;;;;;;;11.77;100.00;101504.91;5057443;28;20033;-62
2022/11/13 10:23:55;;;;;;;12.82;7.45;;;;;;;11.81;100.00;101508.03;5058615;28;20028;-61
2022/11/13 10:26:23;;;;;;;13.98;8.13;;;;;;;11.85;100.00;101506.72;5060507;28;20032;-62
2022/11/13 10:28:59;;;;;;;12.18;7.55;;;;;;;11.95;100.00;101496.72;5047157;28;20048;-61
2022/11/13 10:31:25;;;;;;;12.98;7.57;;;;;;;12.05;100.00;101488.50;5052574;28;20402;-63
2022/11/13 10:33:53;;;;;;;11.15;7.32;;;;;;;12.07;100.00;101488.31;5052686;28;20157;-61
2022/11/13 10:36:36;;;;;;;10.90;8.02;;;;;;;11.98;100.00;101472.44;5046741;28;20581;-62
2022/11/13 10:39:06;;;;;;;11.73;6.63;;;;;;;11.98;100.00;101469.78;5039713;28;20044;-60
2022/11/13 10:41:32;;;;;;;14.02;7.85;;;;;;;11.90;100.00;101458.34;5057765;28;20112;-59
2022/11/13 10:44:17;;;;;;;12.02;7.57;;;;;;;11.99;100.00;101455.47;5052908;28;20056;-61
2022/11/13 10:46:42;;;;;;;15.05;6.97;;;;;;;12.08;100.00;101447.44;5063509;28;20040;-61
2022/11/13 10:49:15;;;;;;;14.07;6.63;;;;;;;12.05;100.00;101440.66;5053052;28;20078;-62
2022/11/13 10:51:41;;;;;;;14.43;7.93;;;;;;;12.03;100.00;101440.03;5058371;28;20062;-61
2022/11/13 10:54:23;;;;;;;14.43;8.75;;;;;;;12.05;100.00;101434.50;5066537;28;20466;-61
2022/11/13 10:57:00;;;;;;;9.60;6.07;;;;;;;12.05;100.00;101437.16;5057658;28;20029;-61
2022/11/13 10:59:37;;;;;;;13.07;7.03;;;;;;;12.04;100.00;101420.41;5059261;28;20461;-60
2022/11/13 11:02:17;;;;;;;14.23;7.07;;;;;;;12.11;100.00;101425.84;5064170;28;20101;-63
2022/11/13 11:04:43;;;;;;;12.48;8.27;;;;;;;12.13;100.00;101418.50;5054917;28;20540;-62
2022/11/13 11:07:21;;;;;;;11.23;7.38;;;;;;;12.11;100.00;101409.91;5045858;28;20028;-63
2022/11/13 11:09:47;;;;;;;12.40;8.10;;;;;;;12.09;100.00;101399.44;5061136;28;20044;-60
2022/11/13 11:12:17;;;;;;;11.82;6.68;;;;;;;12.13;100.00;101394.56;5063411;28;20021;-58